Time;durP1;ratioP1;P1;durP2;ratioP2;P2;SDS_P1;SDS_P2;PMS_P1;PMS_P2;Temp;Humidity;BMP_temperature;BMP_pressure;BME280_temperature;BME280_humidity;BME280_pressure;Samples;Min_cycle;Max_cycle;Signal;HPM_P1;HPM_P2
2023/05/05 00:01:06;;;;;;;7.00;3.85;;;20.60;77.30;;;;;;4985793;28;20027;-55
2023/05/05 00:03:32;;;;;;;12.18;4.22;;;20.60;77.40;;;;;;4986478;28;20026;-54
2023/05/05 00:05:57;;;;;;;11.75;3.85;;;20.60;77.60;;;;;;4985752;28;20054;-54
2023/05/05 00:08:23;;;;;;;7.63;3.83;;;20.50;77.50;;;;;;4986211;28;20035;-55
2023/05/05 00:10:50;;;;;;;12.43;4.03;;;20.50;77.60;;;;;;4987265;28;20026;-55
2023/05/05 00:13:16;;;;;;;8.57;4.13;;;20.50;77.70;;;;;;4985550;28;20035;-55
2023/05/05 00:15:43;;;;;;;7.70;3.72;;;20.50;77.70;;;;;;4966219;28;20035;-55
2023/05/05 00:18:09;;;;;;;7.22;3.75;;;20.40;77.70;;;;;;5000631;28;20054;-55
2023/05/05 00:20:35;;;;;;;7.63;3.47;;;20.40;77.90;;;;;;4984816;28;20361;-54
2023/05/05 00:23:00;;;;;;;7.60;3.58;;;20.30;77.90;;;;;;4986679;28;20030;-55
2023/05/05 00:25:26;;;;;;;8.43;3.67;;;20.30;78.10;;;;;;4987240;28;20018;-55
2023/05/05 00:27:51;;;;;;;11.15;3.90;;;20.30;78.20;;;;;;4986955;28;20038;-55
2023/05/05 00:30:17;;;;;;;11.40;3.92;;;20.30;78.30;;;;;;4984599;28;20027;-55
2023/05/05 00:32:43;;;;;;;11.68;3.63;;;20.30;78.40;;;;;;4985560;28;20046;-55
2023/05/05 00:35:08;;;;;;;8.93;3.90;;;20.30;78.40;;;;;;4986220;28;20475;-55
2023/05/05 00:37:34;;;;;;;8.95;3.63;;;20.20;78.40;;;;;;5017811;28;20034;-55
2023/05/05 00:40:00;;;;;;;6.93;3.30;;;20.20;78.40;;;;;;4987122;28;20023;-55
2023/05/05 00:42:26;;;;;;;10.02;3.92;;;20.20;78.40;;;;;;4984029;28;20033;-55
2023/05/05 00:44:51;;;;;;;4.70;2.95;;;20.20;78.50;;;;;;4986213;28;20503;-55
2023/05/05 00:47:17;;;;;;;6.35;3.22;;;20.10;78.60;;;;;;4985384;28;20033;-55
2023/05/05 00:49:42;;;;;;;5.90;3.38;;;20.10;78.70;;;;;;4985164;28;20038;-55
2023/05/05 00:52:08;;;;;;;10.07;3.35;;;20.10;78.80;;;;;;4983823;28;20019;-55
2023/05/05 00:54:34;;;;;;;12.00;3.70;;;20.00;78.80;;;;;;4984962;28;20045;-55
2023/05/05 00:57:02;;;;;;;9.60;4.10;;;20.10;78.80;;;;;;4984962;28;20022;-55
2023/05/05 00:59:29;;;;;;;5.40;3.08;;;20.10;78.90;;;;;;4985192;28;20026;-55
2023/05/05 01:01:54;;;;;;;7.78;3.20;;;20.00;78.90;;;;;;4985177;28;20038;-54
2023/05/05 01:04:20;;;;;;;5.50;3.10;;;20.00;79.10;;;;;;4985098;28;20227;-55
2023/05/05 01:06:51;;;;;;;9.82;3.35;;;20.00;79.10;;;;;;4985259;28;20037;-55
2023/05/05 01:09:22;;;;;;;4.13;3.30;;;20.00;79.20;;;;;;4986272;28;20035;-55
2023/05/05 01:12:04;;;;;;;6.18;3.00;;;19.90;79.20;;;;;;4986338;28;20027;-55
2023/05/05 01:14:40;;;;;;;5.53;3.40;;;19.90;79.40;;;;;;4985336;28;20123;-55
2023/05/05 01:17:16;;;;;;;6.45;3.47;;;19.90;79.50;;;;;;4984478;28;20030;-55
2023/05/05 01:20:07;;;;;;;5.35;3.22;;;19.80;79.50;;;;;;5002403;28;20515;-55
2023/05/05 01:22:45;;;;;;;4.47;2.80;;;19.80;79.60;;;;;;4987120;28;20054;-55
2023/05/05 01:25:47;;;;;;;6.35;3.30;;;19.80;79.80;;;;;;4967524;29;20031;-54
2023/05/05 01:28:28;;;;;;;6.82;3.35;;;19.70;79.90;;;;;;4966315;29;20036;-55
2023/05/05 01:31:36;;;;;;;7.45;3.95;;;19.70;79.90;;;;;;4967374;29;20125;-55
2023/05/05 01:34:04;;;;;;;7.90;3.60;;;19.70;79.90;;;;;;4964198;28;20130;-55
2023/05/05 01:36:35;;;;;;;5.65;2.65;;;19.70;80.00;;;;;;4981929;28;20031;-55
2023/05/05 01:39:01;;;;;;;6.95;3.22;;;19.70;80.00;;;;;;4984625;28;20054;-55
2023/05/05 01:41:38;;;;;;;7.45;2.92;;;19.70;80.10;;;;;;4986669;28;20026;-54
2023/05/05 01:44:04;;;;;;;5.40;2.75;;;19.60;80.20;;;;;;4987477;28;20134;-54
2023/05/05 01:46:30;;;;;;;4.13;2.67;;;19.60;80.30;;;;;;4985713;28;20479;-55
2023/05/05 01:48:55;;;;;;;5.15;3.00;;;19.60;80.40;;;;;;4984249;28;20046;-55
2023/05/05 01:51:22;;;;;;;4.30;2.75;;;19.60;80.50;;;;;;4983573;28;20045;-55
2023/05/05 01:53:48;;;;;;;4.38;2.78;;;19.60;80.50;;;;;;4983775;28;20039;-55
2023/05/05 01:56:14;;;;;;;4.03;2.80;;;19.50;80.50;;;;;;4987463;28;20038;-55
2023/05/05 01:58:41;;;;;;;5.30;3.05;;;19.50;80.70;;;;;;4987995;28;20058;-54
2023/05/05 02:01:06;;;;;;;5.18;3.13;;;19.50;80.80;;;;;;4971045;28;20027;-55
2023/05/05 02:03:32;;;;;;;6.95;3.80;;;19.50;80.80;;;;;;5003983;28;20527;-55
2023/05/05 02:05:58;;;;;;;4.60;3.70;;;19.50;80.80;;;;;;5005163;28;20027;-55
2023/05/05 02:08:24;;;;;;;4.10;3.70;;;19.40;80.80;;;;;;4972063;28;20042;-55
2023/05/05 02:10:49;;;;;;;6.25;3.30;;;19.40;80.90;;;;;;4987685;28;20447;-55
2023/05/05 02:13:15;;;;;;;7.15;3.80;;;19.40;80.90;;;;;;4987425;28;20070;-55
2023/05/05 02:15:41;;;;;;;7.03;3.60;;;19.40;81.00;;;;;;4987099;28;20035;-55
2023/05/05 02:18:06;;;;;;;5.95;4.20;;;19.40;81.10;;;;;;4986626;28;20031;-55
2023/05/05 02:20:32;;;;;;;5.53;4.38;;;19.40;81.20;;;;;;4971691;28;20470;-55
2023/05/05 02:22:58;;;;;;;12.32;4.65;;;19.30;81.20;;;;;;4987701;28;20034;-55
2023/05/05 02:25:25;;;;;;;13.40;4.63;;;19.30;81.40;;;;;;4987654;28;20023;-55
2023/05/05 02:27:50;;;;;;;5.25;4.45;;;19.30;81.50;;;;;;4986087;28;20060;-55
2023/05/05 02:30:17;;;;;;;4.32;3.80;;;19.30;81.60;;;;;;5003991;28;20019;-55
2023/05/05 02:33:06;;;;;;;7.25;3.97;;;19.30;81.50;;;;;;4971501;28;20031;-54
2023/05/05 02:35:39;;;;;;;6.30;3.85;;;19.30;81.80;;;;;;4972586;28;20054;-55
2023/05/05 02:38:05;;;;;;;6.28;4.30;;;19.30;81.70;;;;;;4970657;28;20035;-55
2023/05/05 02:40:31;;;;;;;5.90;4.03;;;19.20;81.80;;;;;;4986820;28;20118;-55
2023/05/05 02:42:58;;;;;;;5.43;4.00;;;19.20;81.80;;;;;;4986877;28;20035;-55
2023/05/05 02:45:24;;;;;;;5.25;4.10;;;19.20;82.10;;;;;;4987593;28;20031;-55
2023/05/05 02:47:49;;;;;;;6.18;4.28;;;19.20;82.10;;;;;;4987043;28;20035;-55
2023/05/05 02:50:15;;;;;;;5.88;4.35;;;19.20;82.30;;;;;;4987239;28;20030;-55
2023/05/05 02:52:40;;;;;;;5.28;4.20;;;19.10;82.30;;;;;;4987005;28;20102;-55
2023/05/05 02:55:06;;;;;;;7.78;4.10;;;19.10;82.30;;;;;;4971021;28;20031;-54
2023/05/05 02:57:53;;;;;;;6.07;3.63;;;19.10;82.40;;;;;;5003051;28;20050;-55
2023/05/05 03:00:42;;;;;;;4.82;4.00;;;19.10;82.50;;;;;;4988219;28;20027;-55
2023/05/05 03:03:15;;;;;;;6.28;3.65;;;19.10;82.60;;;;;;5005901;28;20125;-55
2023/05/05 03:05:44;;;;;;;6.55;3.85;;;19.10;82.70;;;;;;5004280;28;20356;-55
2023/05/05 03:08:14;;;;;;;4.05;3.50;;;19.10;82.80;;;;;;4986476;28;20494;-55
2023/05/05 03:10:46;;;;;;;6.32;3.65;;;19.00;82.80;;;;;;4986408;28;20039;-55
2023/05/05 03:13:12;;;;;;;5.05;3.65;;;19.00;82.90;;;;;;4970492;28;20030;-55
2023/05/05 03:15:41;;;;;;;4.68;3.55;;;19.00;83.10;;;;;;4986801;28;20037;-55
2023/05/05 03:18:09;;;;;;;4.32;3.72;;;19.00;83.20;;;;;;4986177;28;20095;-55
2023/05/05 03:20:35;;;;;;;6.93;4.25;;;19.00;83.40;;;;;;4986541;28;20031;-55
2023/05/05 03:23:01;;;;;;;7.72;4.60;;;18.90;83.40;;;;;;4986380;28;20035;-54
2023/05/05 03:25:47;;;;;;;6.68;4.60;;;18.90;83.60;;;;;;4986881;28;20153;-55
2023/05/05 03:28:13;;;;;;;7.53;4.20;;;18.90;84.30;;;;;;4987805;28;20442;-55
2023/05/05 03:30:39;;;;;;;10.50;4.60;;;18.80;83.70;;;;;;4985921;28;20055;-55
2023/05/05 03:33:06;;;;;;;12.55;5.22;;;18.80;83.80;;;;;;5018599;28;20438;-54
2023/05/05 03:35:31;;;;;;;22.50;6.03;;;18.80;84.00;;;;;;4987238;28;20019;-55
2023/05/05 03:37:57;;;;;;;11.27;4.93;;;18.80;84.20;;;;;;4987792;28;20031;-55
2023/05/05 03:40:22;;;;;;;16.45;5.20;;;18.80;84.40;;;;;;4987548;28;20077;-55
2023/05/05 03:42:48;;;;;;;21.77;7.10;;;18.70;84.40;;;;;;4986077;28;20053;-55
2023/05/05 03:45:14;;;;;;;20.98;6.80;;;18.70;84.50;;;;;;4988272;28;20038;-55
2023/05/05 03:47:39;;;;;;;25.80;7.55;;;18.70;84.60;;;;;;5018564;28;20178;-55
2023/05/05 03:50:06;;;;;;;24.45;6.85;;;18.70;84.60;;;;;;4987256;28;20027;-55
2023/05/05 03:52:31;;;;;;;29.05;7.32;;;18.70;84.70;;;;;;4985462;28;20034;-55
2023/05/05 03:54:58;;;;;;;27.55;8.35;;;18.60;84.70;;;;;;4986584;28;20475;-55
2023/05/05 03:57:25;;;;;;;31.02;7.78;;;18.70;84.80;;;;;;4986017;28;20022;-54
2023/05/05 03:59:50;;;;;;;21.35;6.97;;;18.60;84.90;;;;;;4985408;28;20019;-55
2023/05/05 04:02:17;;;;;;;26.30;6.97;;;18.60;85.00;;;;;;4986810;28;20103;-55
2023/05/05 04:04:42;;;;;;;27.42;6.95;;;18.60;85.90;;;;;;4986215;28;20078;-55
2023/05/05 04:07:08;;;;;;;19.27;7.05;;;18.60;85.40;;;;;;4987211;28;20023;-55
2023/05/05 04:09:33;;;;;;;25.65;6.68;;;18.50;85.40;;;;;;4985019;28;20099;-54
2023/05/05 04:11:59;;;;;;;24.85;6.70;;;18.50;85.40;;;;;;4986061;28;20031;-55
2023/05/05 04:14:25;;;;;;;21.25;6.35;;;18.50;85.30;;;;;;4986972;28;20039;-55
2023/05/05 04:16:50;;;;;;;22.27;5.90;;;18.50;85.40;;;;;;4987753;28;20058;-54
2023/05/05 04:19:17;;;;;;;19.60;6.13;;;18.50;85.40;;;;;;4986644;28;20038;-55
2023/05/05 04:21:42;;;;;;;18.30;5.78;;;18.50;85.50;;;;;;4986871;28;20082;-55
2023/05/05 04:24:08;;;;;;;14.98;6.03;;;18.50;85.50;;;;;;4987194;28;20039;-55
2023/05/05 04:26:34;;;;;;;13.38;5.53;;;18.50;85.60;;;;;;4984897;28;20050;-54
2023/05/05 04:29:00;;;;;;;9.15;5.32;;;18.50;85.70;;;;;;4985540;28;20045;-54
2023/05/05 04:31:25;;;;;;;21.30;5.57;;;18.40;85.70;;;;;;4985574;28;20113;-55
2023/05/05 04:33:51;;;;;;;20.42;5.53;;;18.40;85.70;;;;;;4986887;28;20031;-55
2023/05/05 04:36:17;;;;;;;16.70;5.22;;;18.40;85.80;;;;;;4985393;28;20041;-55
2023/05/05 04:38:43;;;;;;;15.63;5.00;;;18.30;85.80;;;;;;4986458;28;20069;-55
2023/05/05 04:41:09;;;;;;;11.27;4.97;;;18.40;86.10;;;;;;4985812;28;20458;-55
2023/05/05 04:43:34;;;;;;;13.00;4.90;;;18.40;86.10;;;;;;5016941;28;20054;-55
2023/05/05 04:46:00;;;;;;;9.30;4.88;;;18.40;86.10;;;;;;4969213;28;20090;-55
2023/05/05 04:48:26;;;;;;;16.90;4.70;;;18.30;86.40;;;;;;4985239;28;20359;-55
2023/05/05 04:50:51;;;;;;;6.78;4.47;;;18.30;86.50;;;;;;4985231;28;20035;-55
2023/05/05 04:53:17;;;;;;;14.65;5.28;;;18.30;87.10;;;;;;4984372;28;20035;-55
2023/05/05 04:55:42;;;;;;;11.73;5.05;;;18.30;86.60;;;;;;4986894;28;20038;-55
2023/05/05 04:58:08;;;;;;;10.55;4.50;;;18.30;86.70;;;;;;4984910;28;20042;-55
2023/05/05 05:00:35;;;;;;;15.55;4.35;;;18.30;86.70;;;;;;4968036;28;20031;-55
2023/05/05 05:03:01;;;;;;;9.63;4.68;;;18.20;86.70;;;;;;4984874;28;20057;-55
2023/05/05 05:05:26;;;;;;;9.52;4.00;;;18.20;86.80;;;;;;4985417;28;20516;-55
2023/05/05 05:07:52;;;;;;;7.55;4.53;;;18.20;86.90;;;;;;4986011;28;20411;-55
2023/05/05 05:10:17;;;;;;;6.28;3.97;;;18.20;87.10;;;;;;4983631;28;20053;-55
2023/05/05 05:12:43;;;;;;;6.05;4.20;;;18.20;87.10;;;;;;4984233;28;20049;-55
2023/05/05 05:15:09;;;;;;;8.98;4.00;;;18.20;87.00;;;;;;4985267;28;20019;-55
2023/05/05 05:17:35;;;;;;;13.43;3.55;;;18.20;87.00;;;;;;4986047;28;20533;-55
2023/05/05 05:20:03;;;;;;;10.93;4.03;;;18.20;86.90;;;;;;4984664;28;20031;-55
2023/05/05 05:22:29;;;;;;;8.82;4.32;;;18.10;87.00;;;;;;4983976;28;20023;-55
2023/05/05 05:24:55;;;;;;;7.18;3.63;;;18.10;87.10;;;;;;4984678;28;20456;-55
2023/05/05 05:27:20;;;;;;;6.90;4.03;;;18.10;87.00;;;;;;4985579;28;20041;-55
2023/05/05 05:29:46;;;;;;;9.75;3.70;;;18.10;87.00;;;;;;4983453;28;20027;-55
2023/05/05 05:32:11;;;;;;;9.90;3.65;;;18.10;86.90;;;;;;4985035;28;20411;-55
2023/05/05 05:34:37;;;;;;;8.82;3.58;;;18.10;86.90;;;;;;4984363;28;20041;-55
2023/05/05 05:37:02;;;;;;;7.32;3.33;;;18.10;87.00;;;;;;4983365;28;20042;-55
2023/05/05 05:39:28;;;;;;;7.38;3.40;;;18.20;87.00;;;;;;4984788;28;20057;-55
2023/05/05 05:41:53;;;;;;;7.43;3.47;;;18.20;86.80;;;;;;4983968;28;20033;-54
2023/05/05 05:44:19;;;;;;;7.30;3.72;;;18.20;86.70;;;;;;4984402;28;20029;-54
2023/05/05 05:46:45;;;;;;;8.07;3.42;;;18.20;86.70;;;;;;4985776;28;20049;-55
2023/05/05 05:49:10;;;;;;;9.40;3.90;;;18.10;87.30;;;;;;4985709;28;20063;-55
2023/05/05 05:51:36;;;;;;;7.15;3.63;;;18.10;86.60;;;;;;4982623;28;20039;-55
2023/05/05 05:54:01;;;;;;;7.15;3.45;;;18.10;86.60;;;;;;4985518;28;20435;-55
2023/05/05 05:56:27;;;;;;;9.48;3.60;;;18.10;86.50;;;;;;4984423;28;20038;-55
2023/05/05 05:58:52;;;;;;;5.57;3.63;;;18.10;86.60;;;;;;4984996;28;20070;-55
2023/05/05 06:01:18;;;;;;;6.38;3.20;;;18.20;86.60;;;;;;4983784;28;20093;-55
2023/05/05 06:03:43;;;;;;;12.50;3.67;;;18.20;86.70;;;;;;4984116;28;20031;-55
2023/05/05 06:06:09;;;;;;;9.02;4.15;;;18.10;86.80;;;;;;4984391;28;20031;-54
2023/05/05 06:08:35;;;;;;;6.88;3.78;;;18.10;87.00;;;;;;4983204;28;20041;-55
2023/05/05 06:11:00;;;;;;;5.88;3.83;;;18.10;87.30;;;;;;4983894;28;20071;-55
2023/05/05 06:13:26;;;;;;;4.75;3.70;;;18.10;87.60;;;;;;4983541;28;20046;-55
2023/05/05 06:15:51;;;;;;;7.85;3.78;;;18.10;87.80;;;;;;4984160;28;20092;-55
2023/05/05 06:18:17;;;;;;;7.72;4.50;;;18.10;88.20;;;;;;4984255;28;20086;-54
2023/05/05 06:20:42;;;;;;;6.88;4.18;;;18.10;88.40;;;;;;4983481;28;20033;-55
2023/05/05 06:23:08;;;;;;;8.25;4.40;;;18.10;89.40;;;;;;4985292;28;20041;-55
2023/05/05 06:25:33;;;;;;;11.75;4.35;;;18.10;88.90;;;;;;4983750;28;20389;-55
2023/05/05 06:27:59;;;;;;;7.30;3.83;;;18.00;88.90;;;;;;4984101;28;20038;-55
2023/05/05 06:30:25;;;;;;;7.00;4.40;;;18.00;89.60;;;;;;4984576;28;20023;-55
2023/05/05 06:32:53;;;;;;;6.80;4.40;;;18.10;89.00;;;;;;4984881;28;20035;-55
2023/05/05 06:35:18;;;;;;;7.95;4.47;;;18.10;88.80;;;;;;4964714;28;20032;-54
2023/05/05 06:37:44;;;;;;;6.68;4.10;;;18.00;88.80;;;;;;4974554;28;20102;-55
2023/05/05 06:40:10;;;;;;;5.78;3.90;;;18.10;88.90;;;;;;4981574;28;20030;-55
2023/05/05 06:42:36;;;;;;;5.82;3.55;;;18.10;88.70;;;;;;4983086;28;20058;-55
2023/05/05 06:45:01;;;;;;;5.45;4.00;;;18.10;88.50;;;;;;4983942;28;20038;-55
2023/05/05 06:47:27;;;;;;;9.82;4.60;;;18.10;88.40;;;;;;4986478;28;20368;-55
2023/05/05 06:49:52;;;;;;;11.63;4.53;;;18.10;88.80;;;;;;4986120;28;20027;-54
2023/05/05 06:52:18;;;;;;;19.00;4.88;;;18.10;88.10;;;;;;4987410;28;20498;-55
2023/05/05 06:54:44;;;;;;;13.15;4.25;;;18.10;87.90;;;;;;4987404;28;20057;-55
2023/05/05 06:57:09;;;;;;;10.40;3.97;;;18.20;87.80;;;;;;4986595;28;20030;-55
2023/05/05 06:59:35;;;;;;;11.32;3.85;;;18.20;87.70;;;;;;4986912;28;20026;-55
2023/05/05 07:02:00;;;;;;;9.05;4.05;;;18.20;87.40;;;;;;5001208;28;20027;-55
2023/05/05 07:04:26;;;;;;;7.38;3.28;;;18.20;87.60;;;;;;4986892;28;20031;-54
2023/05/05 07:06:54;;;;;;;12.68;4.30;;;18.20;87.50;;;;;;4970859;28;20039;-55
2023/05/05 07:09:19;;;;;;;10.70;3.72;;;18.20;87.50;;;;;;4986065;28;20042;-54
2023/05/05 07:11:45;;;;;;;6.57;3.17;;;18.20;87.40;;;;;;4987437;28;20031;-55
2023/05/05 07:14:11;;;;;;;8.27;3.50;;;18.20;87.40;;;;;;4987420;28;20042;-54
2023/05/05 07:16:37;;;;;;;10.77;3.58;;;18.20;87.20;;;;;;4986417;28;20058;-54
2023/05/05 07:19:05;;;;;;;6.15;3.10;;;18.20;87.10;;;;;;4993040;28;20030;-55
2023/05/05 07:21:32;;;;;;;12.13;3.47;;;18.20;87.10;;;;;;4998409;28;20015;-54
2023/05/05 07:23:57;;;;;;;12.15;3.55;;;18.30;86.90;;;;;;4984242;28;20041;-54
2023/05/05 07:26:23;;;;;;;8.45;3.47;;;18.30;86.80;;;;;;4988061;28;20099;-55
2023/05/05 07:28:50;;;;;;;9.43;3.72;;;18.30;86.70;;;;;;4984555;28;20058;-55
2023/05/05 07:31:18;;;;;;;7.22;3.25;;;18.30;86.70;;;;;;4988056;28;20041;-55
2023/05/05 07:33:44;;;;;;;22.90;4.70;;;18.30;86.60;;;;;;4984060;28;20034;-54
2023/05/05 07:36:09;;;;;;;19.25;4.43;;;18.30;86.60;;;;;;4994631;28;20364;-55
2023/05/05 07:38:35;;;;;;;33.63;4.63;;;18.40;86.60;;;;;;4988147;28;20034;-55
2023/05/05 07:41:01;;;;;;;37.22;5.85;;;18.40;86.60;;;;;;4987262;28;20042;-55
2023/05/05 07:43:26;;;;;;;64.45;8.60;;;18.40;86.40;;;;;;4987602;28;20102;-55
2023/05/05 07:45:52;;;;;;;39.35;5.80;;;18.40;86.30;;;;;;4988144;28;20065;-54
2023/05/05 07:48:17;;;;;;;29.55;4.70;;;18.40;86.20;;;;;;4984464;28;20066;-55
2023/05/05 07:50:43;;;;;;;26.52;5.25;;;18.40;86.20;;;;;;4987607;28;20034;-55
2023/05/05 07:53:09;;;;;;;21.65;4.38;;;18.50;86.00;;;;;;4984619;28;20081;-54
2023/05/05 07:55:34;;;;;;;29.98;5.72;;;18.50;85.90;;;;;;4975907;28;20043;-55
2023/05/05 07:58:00;;;;;;;15.77;4.60;;;18.50;86.20;;;;;;4978077;28;20054;-55
2023/05/05 08:00:25;;;;;;;25.63;4.88;;;18.50;86.20;;;;;;4985245;28;20038;-55
2023/05/05 08:02:51;;;;;;;44.17;5.78;;;18.50;85.90;;;;;;4986268;28;20038;-54
2023/05/05 08:05:17;;;;;;;44.83;5.93;;;18.60;86.20;;;;;;4982109;28;20023;-54
2023/05/05 08:07:42;;;;;;;21.45;4.28;;;18.60;86.20;;;;;;4978141;28;20046;-55
2023/05/05 08:10:09;;;;;;;35.60;6.10;;;18.60;85.60;;;;;;4977276;28;20050;-55
2023/05/05 08:12:35;;;;;;;497.58;47.83;;;18.70;85.30;;;;;;4976579;28;20162;-54
2023/05/05 08:15:00;;;;;;;105.40;12.80;;;18.70;85.90;;;;;;4961512;28;20051;-55
2023/05/05 08:17:26;;;;;;;61.95;8.07;;;18.70;85.90;;;;;;4976323;28;20376;-55
2023/05/05 08:19:52;;;;;;;99.55;10.68;;;18.80;86.00;;;;;;4980464;28;20033;-55
2023/05/05 08:22:17;;;;;;;54.60;7.30;;;18.70;85.60;;;;;;4979666;28;20029;-54
2023/05/05 08:24:43;;;;;;;381.30;40.80;;;18.80;85.80;;;;;;4980283;28;20031;-54
2023/05/05 08:27:09;;;;;;;73.28;10.05;;;18.80;86.00;;;;;;4981337;28;20081;-55
2023/05/05 08:29:34;;;;;;;71.90;9.32;;;18.80;85.60;;;;;;4968733;28;20069;-54
2023/05/05 08:32:00;;;;;;;50.13;7.97;;;18.90;85.60;;;;;;4984908;28;20018;-55
2023/05/05 08:34:25;;;;;;;77.60;9.13;;;18.90;85.40;;;;;;4957821;28;20094;-55
2023/05/05 08:36:51;;;;;;;146.80;18.00;;;18.90;85.00;;;;;;4982312;28;20039;-55
2023/05/05 08:39:17;;;;;;;73.28;9.60;;;19.00;85.00;;;;;;4984998;28;20050;-55
2023/05/05 08:41:42;;;;;;;78.88;9.32;;;19.00;84.90;;;;;;4984768;28;20129;-55
2023/05/05 08:44:09;;;;;;;77.00;10.05;;;19.00;84.70;;;;;;4985873;28;20023;-55
2023/05/05 08:46:35;;;;;;;58.72;9.02;;;19.00;84.90;;;;;;4984581;28;20039;-55
2023/05/05 08:49:02;;;;;;;65.97;10.18;;;19.00;84.70;;;;;;4984468;28;20054;-55
2023/05/05 08:51:30;;;;;;;132.60;14.40;;;19.10;84.60;;;;;;4985138;28;20078;-52
2023/05/05 08:53:57;;;;;;;103.38;12.05;;;19.10;84.50;;;;;;4965905;29;20035;-54
2023/05/05 08:56:26;;;;;;;85.40;8.85;;;19.20;85.30;;;;;;4968508;28;20062;-55
2023/05/05 08:58:51;;;;;;;49.17;9.80;;;19.20;85.20;;;;;;4978191;28;20027;-55
2023/05/05 09:01:17;;;;;;;91.65;9.32;;;19.30;84.90;;;;;;4982735;28;20090;-55
2023/05/05 09:03:43;;;;;;;63.97;9.10;;;19.30;84.90;;;;;;4979425;28;20046;-55
2023/05/05 09:06:09;;;;;;;69.63;8.55;;;19.30;84.50;;;;;;4970718;28;20038;-55
2023/05/05 09:08:36;;;;;;;67.15;8.88;;;19.30;84.20;;;;;;4982696;28;20034;-55
2023/05/05 09:11:01;;;;;;;59.45;8.50;;;19.30;83.90;;;;;;4980963;28;20038;-54
2023/05/05 09:13:28;;;;;;;76.82;10.15;;;19.40;83.80;;;;;;4977667;28;20071;-55
2023/05/05 09:15:54;;;;;;;124.55;15.85;;;19.40;83.90;;;;;;4984408;28;20091;-54
2023/05/05 09:18:19;;;;;;;52.53;6.25;;;19.40;84.00;;;;;;4981659;28;20099;-55
2023/05/05 09:20:45;;;;;;;34.13;5.80;;;19.50;83.70;;;;;;4979421;28;20023;-55
2023/05/05 09:23:11;;;;;;;50.65;7.53;;;19.50;83.30;;;;;;4973316;28;20022;-54
2023/05/05 09:25:37;;;;;;;49.38;6.95;;;19.50;83.30;;;;;;4988639;28;20340;-55
2023/05/05 09:28:09;;;;;;;47.17;6.90;;;19.60;83.30;;;;;;4984360;28;20027;-55
2023/05/05 09:30:35;;;;;;;81.60;10.77;;;19.60;83.00;;;;;;4982953;28;20054;-55
2023/05/05 09:33:01;;;;;;;70.18;10.02;;;19.70;83.10;;;;;;4983396;28;20068;-55
2023/05/05 09:35:26;;;;;;;108.03;11.90;;;19.70;83.40;;;;;;4977531;28;20039;-54
2023/05/05 09:37:52;;;;;;;98.20;11.15;;;19.80;83.50;;;;;;4975801;28;20046;-55
2023/05/05 09:40:18;;;;;;;159.18;17.58;;;19.80;83.60;;;;;;4981638;28;20035;-55
2023/05/05 09:42:44;;;;;;;99.63;14.73;;;19.80;83.50;;;;;;4994224;28;20035;-55
2023/05/05 09:45:18;;;;;;;76.40;12.63;;;19.90;83.70;;;;;;4984483;28;20117;-55
2023/05/05 09:47:45;;;;;;;114.25;12.57;;;19.90;83.40;;;;;;4983552;28;20046;-54
2023/05/05 09:50:14;;;;;;;98.43;13.82;;;20.00;83.10;;;;;;4981720;28;20023;-55
2023/05/05 09:52:41;;;;;;;116.40;13.75;;;19.90;83.10;;;;;;4982056;28;20037;-55
2023/05/05 09:55:16;;;;;;;93.20;12.75;;;20.10;83.80;;;;;;4982273;28;20030;-54
2023/05/05 09:57:42;;;;;;;73.35;11.98;;;20.10;83.00;;;;;;4999159;28;20035;-55
2023/05/05 10:00:09;;;;;;;99.20;13.77;;;20.10;82.60;;;;;;5014207;28;20019;-55
2023/05/05 10:02:37;;;;;;;107.20;13.13;;;20.20;82.90;;;;;;4980084;28;20035;-55
2023/05/05 10:05:15;;;;;;;104.30;14.45;;;20.20;83.00;;;;;;4980218;28;20027;-54
2023/05/05 10:07:42;;;;;;;101.28;13.52;;;20.30;82.70;;;;;;4968136;28;20032;-55
2023/05/05 10:10:12;;;;;;;62.70;10.07;;;20.30;82.60;;;;;;4977090;28;20045;-55
2023/05/05 10:12:38;;;;;;;40.47;7.05;;;20.30;81.70;;;;;;4981693;28;20039;-55
2023/05/05 10:15:05;;;;;;;70.97;10.38;;;20.40;81.30;;;;;;5013907;28;20155;-55
2023/05/05 10:17:35;;;;;;;84.85;12.32;;;20.50;81.10;;;;;;4964025;28;20109;-53
2023/05/05 10:20:02;;;;;;;78.60;10.88;;;20.50;81.40;;;;;;4980591;28;20028;-55
2023/05/05 10:22:31;;;;;;;72.03;12.68;;;20.60;80.80;;;;;;4999826;28;20125;-55
2023/05/05 10:25:01;;;;;;;92.60;13.35;;;20.60;81.00;;;;;;5000023;28;20518;-55
2023/05/05 10:27:27;;;;;;;151.18;16.08;;;20.70;81.30;;;;;;5011507;28;20074;-55
2023/05/05 10:30:06;;;;;;;77.40;10.95;;;20.70;80.90;;;;;;4984133;28;20050;-55
2023/05/05 10:32:50;;;;;;;64.50;8.85;;;20.80;80.50;;;;;;4962168;28;20082;-55
2023/05/05 10:35:20;;;;;;;39.97;6.35;;;20.80;80.00;;;;;;5001072;28;20038;-55
2023/05/05 10:37:46;;;;;;;31.55;7.10;;;20.90;79.30;;;;;;4998213;28;20038;-55
2023/05/05 10:40:12;;;;;;;106.50;13.55;;;20.90;79.00;;;;;;4996061;28;20019;-55
2023/05/05 10:42:38;;;;;;;55.45;9.52;;;21.00;79.20;;;;;;4985479;28;20042;-55
2023/05/05 10:45:05;;;;;;;41.67;7.03;;;21.00;79.20;;;;;;4986777;28;20042;-55
2023/05/05 10:47:31;;;;;;;33.13;7.10;;;21.10;79.30;;;;;;4984410;28;20094;-54
2023/05/05 10:50:05;;;;;;;64.75;9.50;;;21.10;78.70;;;;;;4986642;28;20439;-54
2023/05/05 10:52:45;;;;;;;67.38;9.88;;;21.10;78.80;;;;;;4978305;28;20459;-55
2023/05/05 10:55:47;;;;;;;72.57;11.65;;;21.20;79.10;;;;;;4985858;28;20031;-54
2023/05/05 10:58:36;;;;;;;71.20;10.57;;;21.20;79.50;;;;;;4980744;28;20035;-55
2023/05/05 11:01:02;;;;;;;69.35;11.45;;;21.30;79.40;;;;;;4993844;28;20083;-55
2023/05/05 11:03:28;;;;;;;90.35;11.40;;;21.30;79.10;;;;;;5016013;28;20050;-55
2023/05/05 11:06:03;;;;;;;66.20;9.98;;;21.40;79.20;;;;;;4998531;28;20472;-55
2023/05/05 11:08:32;;;;;;;95.15;13.15;;;21.40;79.10;;;;;;4985880;28;20105;-55
2023/05/05 11:10:58;;;;;;;104.32;13.75;;;21.50;79.00;;;;;;4995902;28;20080;-55
2023/05/05 11:13:24;;;;;;;24.98;5.18;;;21.50;78.90;;;;;;4985312;28;20141;-55
2023/05/05 11:15:53;;;;;;;30.13;5.55;;;21.60;77.40;;;;;;4986370;28;20027;-55
2023/05/05 11:18:34;;;;;;;41.92;7.35;;;21.60;76.30;;;;;;4984429;28;20162;-55
2023/05/05 11:21:00;;;;;;;94.78;13.90;;;21.70;76.30;;;;;;4986355;28;20026;-55
2023/05/05 11:23:25;;;;;;;103.45;13.88;;;21.70;76.80;;;;;;4983527;28;20398;-55
2023/05/05 11:25:51;;;;;;;59.90;7.80;;;21.70;77.30;;;;;;4986909;28;20027;-55
2023/05/05 11:28:19;;;;;;;43.20;6.85;;;21.80;76.90;;;;;;4985276;28;20095;-54
2023/05/05 11:30:57;;;;;;;39.10;6.82;;;21.80;75.80;;;;;;4987320;28;20122;-55
2023/05/05 11:33:32;;;;;;;30.35;7.75;;;21.90;75.50;;;;;;4987142;28;20472;-55
2023/05/05 11:35:58;;;;;;;59.83;8.80;;;21.90;75.30;;;;;;4986970;28;20417;-54
2023/05/05 11:38:45;;;;;;;52.72;9.45;;;22.00;76.60;;;;;;4986503;28;20039;-55
2023/05/05 11:41:33;;;;;;;69.60;9.50;;;22.10;76.00;;;;;;4986682;28;20027;-55
2023/05/05 11:44:12;;;;;;;61.53;10.73;;;22.10;75.90;;;;;;4982192;28;20030;-54
2023/05/05 11:46:59;;;;;;;58.38;9.18;;;22.30;75.60;;;;;;4987035;28;20095;-54
2023/05/05 11:49:31;;;;;;;22.95;5.53;;;22.30;74.80;;;;;;4982905;28;20066;-55
2023/05/05 11:52:06;;;;;;;29.58;4.68;;;22.40;73.80;;;;;;4986602;28;20058;-55
2023/05/05 11:54:33;;;;;;;35.58;5.90;;;22.40;73.10;;;;;;4986374;28;20077;-55
2023/05/05 11:57:04;;;;;;;27.00;4.40;;;22.50;73.10;;;;;;4985057;28;20129;-55
2023/05/05 11:59:53;;;;;;;27.58;5.10;;;22.60;73.30;;;;;;4986173;28;20037;-55
2023/05/05 12:02:19;;;;;;;40.03;5.57;;;22.70;72.30;;;;;;4985556;28;20463;-55
2023/05/05 12:04:45;;;;;;;41.63;6.13;;;22.70;72.10;;;;;;5001270;28;20027;-55
2023/05/05 12:07:18;;;;;;;51.95;8.30;;;22.80;72.50;;;;;;4984843;28;20037;-55
2023/05/05 12:09:44;;;;;;;52.92;6.15;;;22.80;73.10;;;;;;4985120;28;20035;-55
2023/05/05 12:12:10;;;;;;;26.23;4.53;;;22.80;72.30;;;;;;4966714;28;20046;-55
2023/05/05 12:14:47;;;;;;;40.92;6.47;;;22.90;72.00;;;;;;4982739;28;20042;-55
2023/05/05 12:17:12;;;;;;;34.42;5.05;;;22.90;71.90;;;;;;4966834;29;20035;-54
2023/05/05 12:19:49;;;;;;;31.20;5.03;;;23.00;71.30;;;;;;4968175;29;20138;-55
2023/05/05 12:22:19;;;;;;;27.17;4.38;;;23.10;71.00;;;;;;4964905;28;20027;-55
2023/05/05 12:24:44;;;;;;;20.75;4.50;;;23.10;70.80;;;;;;4977215;28;20046;-55
2023/05/05 12:27:10;;;;;;;28.98;4.80;;;23.10;70.90;;;;;;4969224;28;20034;-54
2023/05/05 12:29:36;;;;;;;25.33;4.65;;;23.10;71.00;;;;;;4985900;28;20039;-55
2023/05/05 12:32:01;;;;;;;18.20;4.28;;;23.20;71.40;;;;;;4969621;28;20072;-55
2023/05/05 12:34:27;;;;;;;25.95;4.20;;;23.20;71.60;;;;;;4985436;28;20034;-55
2023/05/05 12:36:52;;;;;;;13.57;4.15;;;23.20;71.50;;;;;;4966734;28;20026;-55
2023/05/05 12:39:18;;;;;;;24.23;4.40;;;23.20;71.40;;;;;;4983312;28;20023;-55
2023/05/05 12:41:43;;;;;;;18.45;4.15;;;23.20;71.30;;;;;;4986290;28;20079;-55